sensor_id;sensor_type;location;lat;lon;timestamp;pressure;altitude;pressure_sealevel;temperature;humidity
64139;BME280;50435;43.700;-79.318;2023-04-26T00:01:05;100750.82;;;9.07;42.22
64139;BME280;50435;43.700;-79.318;2023-04-26T00:03:32;100752.51;;;9.34;42.63
64139;BME280;50435;43.700;-79.318;2023-04-26T00:05:59;100758.93;;;7.84;42.59
64139;BME280;50435;43.700;-79.318;2023-04-26T00:08:27;100758.37;;;9.27;42.43
64139;BME280;50435;43.700;-79.318;2023-04-26T00:10:55;100762.52;;;8.24;42.62
64139;BME280;50435;43.700;-79.318;2023-04-26T00:13:22;100767.87;;;9.42;42.65
64139;BME280;50435;43.700;-79.318;2023-04-26T00:15:50;100763.67;;;8.77;43.03
64139;BME280;50435;43.700;-79.318;2023-04-26T00:18:17;100765.16;;;8.99;43.04
64139;BME280;50435;43.700;-79.318;2023-04-26T00:20:45;100768.20;;;9.29;42.73
64139;BME280;50435;43.700;-79.318;2023-04-26T00:23:13;100772.29;;;8.96;42.86
64139;BME280;50435;43.700;-79.318;2023-04-26T00:25:41;100768.97;;;8.99;42.77
64139;BME280;50435;43.700;-79.318;2023-04-26T00:28:09;100772.55;;;8.54;43.14
64139;BME280;50435;43.700;-79.318;2023-04-26T00:30:36;100775.49;;;8.99;43.18
64139;BME280;50435;43.700;-79.318;2023-04-26T00:33:04;100777.02;;;8.37;42.97
64139;BME280;50435;43.700;-79.318;2023-04-26T00:35:31;100777.25;;;8.65;43.34
64139;BME280;50435;43.700;-79.318;2023-04-26T00:37:59;100776.94;;;8.25;43.20
64139;BME280;50435;43.700;-79.318;2023-04-26T00:40:27;100779.73;;;8.87;43.18
64139;BME280;50435;43.700;-79.318;2023-04-26T00:42:57;100780.94;;;7.62;43.30
64139;BME280;50435;43.700;-79.318;2023-04-26T00:45:24;100785.19;;;8.72;43.27
64139;BME280;50435;43.700;-79.318;2023-04-26T00:47:52;100785.67;;;8.04;43.26
64139;BME280;50435;43.700;-79.318;2023-04-26T00:50:20;100785.06;;;8.39;43.57
64139;BME280;50435;43.700;-79.318;2023-04-26T00:52:48;100789.15;;;8.67;43.35
64139;BME280;50435;43.700;-79.318;2023-04-26T00:55:17;100793.03;;;8.89;43.53
64139;BME280;50435;43.700;-79.318;2023-04-26T00:57:47;100794.24;;;8.80;43.70
64139;BME280;50435;43.700;-79.318;2023-04-26T01:00:14;100793.79;;;8.30;43.44
64139;BME280;50435;43.700;-79.318;2023-04-26T01:02:42;100797.18;;;8.57;43.47
64139;BME280;50435;43.700;-79.318;2023-04-26T01:05:10;100800.90;;;8.24;43.34
64139;BME280;50435;43.700;-79.318;2023-04-26T01:07:38;100803.78;;;8.75;43.54
64139;BME280;50435;43.700;-79.318;2023-04-26T01:10:06;100806.69;;;8.40;43.81
64139;BME280;50435;43.700;-79.318;2023-04-26T01:12:34;100807.46;;;8.54;43.74
64139;BME280;50435;43.700;-79.318;2023-04-26T01:15:03;100808.21;;;7.06;43.68
64139;BME280;50435;43.700;-79.318;2023-04-26T01:17:31;100809.25;;;8.61;43.62
64139;BME280;50435;43.700;-79.318;2023-04-26T01:19:58;100805.67;;;6.93;43.42
64139;BME280;50435;43.700;-79.318;2023-04-26T01:22:25;100808.92;;;8.49;43.68
64139;BME280;50435;43.700;-79.318;2023-04-26T01:24:54;100807.06;;;7.55;43.71
64139;BME280;50435;43.700;-79.318;2023-04-26T01:27:23;100804.79;;;8.41;43.99
64139;BME280;50435;43.700;-79.318;2023-04-26T01:29:51;100805.31;;;7.86;44.06
64139;BME280;50435;43.700;-79.318;2023-04-26T01:32:19;100806.15;;;8.18;44.27
64139;BME280;50435;43.700;-79.318;2023-04-26T01:34:46;100812.65;;;8.25;44.23
64139;BME280;50435;43.700;-79.318;2023-04-26T01:37:14;100813.86;;;8.00;44.24
64139;BME280;50435;43.700;-79.318;2023-04-26T01:39:41;100816.76;;;8.30;44.31
64139;BME280;50435;43.700;-79.318;2023-04-26T01:42:09;100813.90;;;7.82;44.47
64139;BME280;50435;43.700;-79.318;2023-04-26T01:44:37;100815.70;;;7.99;44.54
64139;BME280;50435;43.700;-79.318;2023-04-26T01:47:04;100815.61;;;7.44;44.68
64139;BME280;50435;43.700;-79.318;2023-04-26T01:49:32;100820.42;;;8.00;44.44
64139;BME280;50435;43.700;-79.318;2023-04-26T01:52:00;100815.47;;;6.31;44.34
64139;BME280;50435;43.700;-79.318;2023-04-26T01:54:27;100816.95;;;7.72;44.37
64139;BME280;50435;43.700;-79.318;2023-04-26T01:56:55;100821.09;;;7.08;44.27
64139;BME280;50435;43.700;-79.318;2023-04-26T01:59:23;100823.57;;;7.95;44.46
64139;BME280;50435;43.700;-79.318;2023-04-26T02:01:50;100826.88;;;7.88;44.46
64139;BME280;50435;43.700;-79.318;2023-04-26T02:04:17;100826.85;;;7.79;44.53
64139;BME280;50435;43.700;-79.318;2023-04-26T02:06:44;100826.75;;;8.05;44.62
64139;BME280;50435;43.700;-79.318;2023-04-26T02:09:12;100829.29;;;7.74;44.82
64139;BME280;50435;43.700;-79.318;2023-04-26T02:11:39;100831.05;;;7.94;44.77
64139;BME280;50435;43.700;-79.318;2023-04-26T02:14:06;100831.10;;;7.53;45.16
64139;BME280;50435;43.700;-79.318;2023-04-26T02:16:34;100832.87;;;7.62;45.00
64139;BME280;50435;43.700;-79.318;2023-04-26T02:19:02;100834.12;;;6.75;45.26
64139;BME280;50435;43.700;-79.318;2023-04-26T02:21:29;100839.73;;;7.43;45.29
64139;BME280;50435;43.700;-79.318;2023-04-26T02:23:56;100843.66;;;6.49;45.41
64139;BME280;50435;43.700;-79.318;2023-04-26T02:26:24;100846.40;;;7.32;45.40
64139;BME280;50435;43.700;-79.318;2023-04-26T02:28:52;100840.54;;;6.88;45.37
64139;BME280;50435;43.700;-79.318;2023-04-26T02:31:19;100840.91;;;7.34;45.37
64139;BME280;50435;43.700;-79.318;2023-04-26T02:33:47;100845.61;;;7.43;45.61
64139;BME280;50435;43.700;-79.318;2023-04-26T02:36:14;100846.45;;;7.19;45.62
64139;BME280;50435;43.700;-79.318;2023-04-26T02:38:42;100851.49;;;7.10;45.83
64139;BME280;50435;43.700;-79.318;2023-04-26T02:41:09;100853.16;;;7.10;45.78
64139;BME280;50435;43.700;-79.318;2023-04-26T02:43:36;100850.75;;;7.09;45.76
64139;BME280;50435;43.700;-79.318;2023-04-26T02:46:06;100851.86;;;7.06;45.79
64139;BME280;50435;43.700;-79.318;2023-04-26T02:48:34;100850.89;;;7.10;46.23
64139;BME280;50435;43.700;-79.318;2023-04-26T02:51:01;100849.70;;;6.30;46.29
64139;BME280;50435;43.700;-79.318;2023-04-26T02:53:29;100849.55;;;7.09;46.13
64139;BME280;50435;43.700;-79.318;2023-04-26T02:55:56;100847.97;;;5.47;46.13
64139;BME280;50435;43.700;-79.318;2023-04-26T02:58:24;100849.99;;;7.25;45.75
64139;BME280;50435;43.700;-79.318;2023-04-26T03:00:51;100847.33;;;6.39;45.90
64139;BME280;50435;43.700;-79.318;2023-04-26T03:03:19;100844.53;;;7.04;46.06
64139;BME280;50435;43.700;-79.318;2023-04-26T03:05:46;100843.67;;;6.91;46.29
64139;BME280;50435;43.700;-79.318;2023-04-26T03:08:14;100843.26;;;6.82;46.09
64139;BME280;50435;43.700;-79.318;2023-04-26T03:10:43;100845.08;;;7.21;45.71
64139;BME280;50435;43.700;-79.318;2023-04-26T03:13:11;100848.48;;;6.76;45.96
64139;BME280;50435;43.700;-79.318;2023-04-26T03:15:43;100843.97;;;6.96;46.05
64139;BME280;50435;43.700;-79.318;2023-04-26T03:18:10;100842.33;;;6.70;46.21
64139;BME280;50435;43.700;-79.318;2023-04-26T03:20:38;100841.15;;;6.98;46.01
64139;BME280;50435;43.700;-79.318;2023-04-26T03:23:05;100844.43;;;6.16;46.25
64139;BME280;50435;43.700;-79.318;2023-04-26T03:25:33;100840.18;;;7.00;45.96
64139;BME280;50435;43.700;-79.318;2023-04-26T03:28:01;100841.48;;;6.28;45.89
64139;BME280;50435;43.700;-79.318;2023-04-26T03:30:29;100835.10;;;7.13;46.18
64139;BME280;50435;43.700;-79.318;2023-04-26T03:32:56;100834.25;;;5.70;46.17
64139;BME280;50435;43.700;-79.318;2023-04-26T03:35:24;100836.82;;;6.66;46.44
64139;BME280;50435;43.700;-79.318;2023-04-26T03:37:52;100832.10;;;5.95;46.47
64139;BME280;50435;43.700;-79.318;2023-04-26T03:40:19;100832.93;;;6.86;46.67
64139;BME280;50435;43.700;-79.318;2023-04-26T03:42:47;100832.89;;;6.71;46.36
64139;BME280;50435;43.700;-79.318;2023-04-26T03:45:14;100825.95;;;6.13;46.95
64139;BME280;50435;43.700;-79.318;2023-04-26T03:47:42;100828.82;;;6.60;46.49
64139;BME280;50435;43.700;-79.318;2023-04-26T03:50:10;100827.38;;;6.49;46.67
64139;BME280;50435;43.700;-79.318;2023-04-26T03:52:38;100827.97;;;6.72;46.78
64139;BME280;50435;43.700;-79.318;2023-04-26T03:55:06;100824.26;;;6.23;46.80
64139;BME280;50435;43.700;-79.318;2023-04-26T03:57:34;100819.32;;;6.68;46.76
64139;BME280;50435;43.700;-79.318;2023-04-26T04:00:03;100816.66;;;5.37;46.89
64139;BME280;50435;43.700;-79.318;2023-04-26T04:02:30;100814.70;;;6.64;46.81
64139;BME280;50435;43.700;-79.318;2023-04-26T04:04:58;100819.03;;;5.14;46.46
64139;BME280;50435;43.700;-79.318;2023-04-26T04:07:26;100819.39;;;6.23;47.02
64139;BME280;50435;43.700;-79.318;2023-04-26T04:09:53;100820.92;;;5.48;47.09
64139;BME280;50435;43.700;-79.318;2023-04-26T04:12:21;100819.99;;;6.38;47.21
64139;BME280;50435;43.700;-79.318;2023-04-26T04:14:48;100819.40;;;6.31;47.24
64139;BME280;50435;43.700;-79.318;2023-04-26T04:17:15;100816.87;;;6.05;47.29
64139;BME280;50435;43.700;-79.318;2023-04-26T04:19:43;100822.31;;;6.36;47.25
64139;BME280;50435;43.700;-79.318;2023-04-26T04:22:11;100823.12;;;5.92;47.03
64139;BME280;50435;43.700;-79.318;2023-04-26T04:24:38;100817.50;;;6.18;47.41
64139;BME280;50435;43.700;-79.318;2023-04-26T04:27:06;100816.90;;;5.86;47.21
64139;BME280;50435;43.700;-79.318;2023-04-26T04:29:34;100818.24;;;6.32;47.23
64139;BME280;50435;43.700;-79.318;2023-04-26T04:32:02;100818.38;;;5.49;46.80
64139;BME280;50435;43.700;-79.318;2023-04-26T04:34:33;100820.21;;;5.85;47.56
64139;BME280;50435;43.700;-79.318;2023-04-26T04:37:01;100818.56;;;4.92;47.38
64139;BME280;50435;43.700;-79.318;2023-04-26T04:39:29;100824.57;;;6.20;47.29
64139;BME280;50435;43.700;-79.318;2023-04-26T04:41:56;100824.34;;;5.09;47.51
64139;BME280;50435;43.700;-79.318;2023-04-26T04:44:23;100824.30;;;6.04;47.64
64139;BME280;50435;43.700;-79.318;2023-04-26T04:46:51;100825.90;;;5.57;47.57
64139;BME280;50435;43.700;-79.318;2023-04-26T04:49:19;100825.46;;;5.90;47.97
64139;BME280;50435;43.700;-79.318;2023-04-26T04:51:46;100825.55;;;5.87;47.97
64139;BME280;50435;43.700;-79.318;2023-04-26T04:54:15;100828.83;;;5.77;47.67
64139;BME280;50435;43.700;-79.318;2023-04-26T04:56:43;100827.20;;;5.99;47.70
64139;BME280;50435;43.700;-79.318;2023-04-26T04:59:10;100829.08;;;5.73;47.69
64139;BME280;50435;43.700;-79.318;2023-04-26T05:01:37;100828.64;;;6.11;47.46
64139;BME280;50435;43.700;-79.318;2023-04-26T05:04:05;100827.90;;;5.15;48.33
64139;BME280;50435;43.700;-79.318;2023-04-26T05:06:32;100830.78;;;6.08;47.99
64139;BME280;50435;43.700;-79.318;2023-04-26T05:09:00;100832.45;;;4.96;47.83
64139;BME280;50435;43.700;-79.318;2023-04-26T05:11:28;100831.22;;;5.88;47.98
64139;BME280;50435;43.700;-79.318;2023-04-26T05:13:56;100831.29;;;4.67;47.94
64139;BME280;50435;43.700;-79.318;2023-04-26T05:16:23;100827.32;;;5.85;48.09
64139;BME280;50435;43.700;-79.318;2023-04-26T05:18:50;100826.17;;;5.70;47.86
64139;BME280;50435;43.700;-79.318;2023-04-26T05:21:18;100822.15;;;5.93;47.80
64139;BME280;50435;43.700;-79.318;2023-04-26T05:23:46;100823.99;;;5.84;47.99
64139;BME280;50435;43.700;-79.318;2023-04-26T05:26:15;100823.17;;;5.86;47.95
64139;BME280;50435;43.700;-79.318;2023-04-26T05:28:43;100818.56;;;5.93;48.21
64139;BME280;50435;43.700;-79.318;2023-04-26T05:31:11;100816.66;;;5.37;47.95
64139;BME280;50435;43.700;-79.318;2023-04-26T05:33:38;100814.59;;;6.24;48.05
64139;BME280;50435;43.700;-79.318;2023-04-26T05:36:06;100813.10;;;4.69;48.20
64139;BME280;50435;43.700;-79.318;2023-04-26T05:38:35;100809.26;;;5.68;48.03
64139;BME280;50435;43.700;-79.318;2023-04-26T05:41:03;100807.28;;;4.89;48.23
64139;BME280;50435;43.700;-79.318;2023-04-26T05:43:31;100803.75;;;5.49;48.48
64139;BME280;50435;43.700;-79.318;2023-04-26T05:45:58;100805.46;;;4.29;47.94
64139;BME280;50435;43.700;-79.318;2023-04-26T05:48:25;100807.44;;;5.51;48.24
64139;BME280;50435;43.700;-79.318;2023-04-26T05:50:53;100803.01;;;4.84;48.17
64139;BME280;50435;43.700;-79.318;2023-04-26T05:53:21;100804.24;;;5.74;47.85
64139;BME280;50435;43.700;-79.318;2023-04-26T05:55:49;100796.55;;;6.06;48.00
64139;BME280;50435;43.700;-79.318;2023-04-26T05:58:16;100795.71;;;5.42;48.44
64139;BME280;50435;43.700;-79.318;2023-04-26T06:00:44;100796.37;;;5.69;48.29
64139;BME280;50435;43.700;-79.318;2023-04-26T06:03:11;100798.94;;;5.26;48.11
64139;BME280;50435;43.700;-79.318;2023-04-26T06:05:39;100797.44;;;5.83;48.46
64139;BME280;50435;43.700;-79.318;2023-04-26T06:08:06;100794.45;;;4.78;48.45
64139;BME280;50435;43.700;-79.318;2023-04-26T06:10:35;100795.84;;;5.61;48.32
64139;BME280;50435;43.700;-79.318;2023-04-26T06:13:02;100792.79;;;4.52;49.05
64139;BME280;50435;43.700;-79.318;2023-04-26T06:15:29;100794.61;;;5.37;48.81
64139;BME280;50435;43.700;-79.318;2023-04-26T06:17:57;100791.41;;;4.20;48.70
64139;BME280;50435;43.700;-79.318;2023-04-26T06:20:24;100788.87;;;5.38;49.38
64139;BME280;50435;43.700;-79.318;2023-04-26T06:22:52;100790.86;;;4.53;49.00
64139;BME280;50435;43.700;-79.318;2023-04-26T06:25:20;100791.99;;;5.17;49.03
64139;BME280;50435;43.700;-79.318;2023-04-26T06:27:47;100787.99;;;5.43;49.06
64139;BME280;50435;43.700;-79.318;2023-04-26T06:30:15;100788.57;;;5.00;48.96
64139;BME280;50435;43.700;-79.318;2023-04-26T06:32:42;100791.92;;;5.59;48.67
64139;BME280;50435;43.700;-79.318;2023-04-26T06:35:10;100786.85;;;4.87;48.97
64139;BME280;50435;43.700;-79.318;2023-04-26T06:37:37;100787.72;;;5.14;48.93
64139;BME280;50435;43.700;-79.318;2023-04-26T06:40:06;100789.45;;;4.56;48.95
64139;BME280;50435;43.700;-79.318;2023-04-26T06:42:34;100791.43;;;5.28;48.99
64139;BME280;50435;43.700;-79.318;2023-04-26T06:45:01;100791.33;;;3.70;48.78
64139;BME280;50435;43.700;-79.318;2023-04-26T06:47:29;100792.98;;;5.48;48.57
64139;BME280;50435;43.700;-79.318;2023-04-26T06:49:56;100797.07;;;3.86;48.83
64139;BME280;50435;43.700;-79.318;2023-04-26T06:52:24;100794.17;;;4.93;49.07
64139;BME280;50435;43.700;-79.318;2023-04-26T06:54:52;100795.82;;;4.45;48.93
64139;BME280;50435;43.700;-79.318;2023-04-26T06:57:20;100794.39;;;5.12;49.12
64139;BME280;50435;43.700;-79.318;2023-04-26T06:59:48;100796.76;;;5.23;48.91
64139;BME280;50435;43.700;-79.318;2023-04-26T07:02:15;100796.15;;;5.16;48.96
64139;BME280;50435;43.700;-79.318;2023-04-26T07:04:43;100798.86;;;4.99;49.30
64139;BME280;50435;43.700;-79.318;2023-04-26T07:07:10;100797.50;;;4.70;48.80
64139;BME280;50435;43.700;-79.318;2023-04-26T07:09:38;100798.75;;;5.36;48.29
64139;BME280;50435;43.700;-79.318;2023-04-26T07:12:05;100796.40;;;4.80;48.46
64139;BME280;50435;43.700;-79.318;2023-04-26T07:14:33;100799.35;;;4.99;48.92
64139;BME280;50435;43.700;-79.318;2023-04-26T07:17:00;100800.91;;;3.38;48.74
64139;BME280;50435;43.700;-79.318;2023-04-26T07:19:28;100804.63;;;4.88;49.11
64139;BME280;50435;43.700;-79.318;2023-04-26T07:21:55;100803.19;;;4.43;48.11
64139;BME280;50435;43.700;-79.318;2023-04-26T07:24:23;100804.25;;;5.10;48.53
64139;BME280;50435;43.700;-79.318;2023-04-26T07:26:50;100804.28;;;4.60;48.52
64139;BME280;50435;43.700;-79.318;2023-04-26T07:29:18;100800.61;;;5.08;48.64
64139;BME280;50435;43.700;-79.318;2023-04-26T07:31:45;100803.38;;;5.03;48.55
64139;BME280;50435;43.700;-79.318;2023-04-26T07:34:13;100800.33;;;5.06;47.87
64139;BME280;50435;43.700;-79.318;2023-04-26T07:36:40;100803.43;;;5.08;48.42
64139;BME280;50435;43.700;-79.318;2023-04-26T07:39:07;100804.94;;;4.57;48.42
64139;BME280;50435;43.700;-79.318;2023-04-26T07:41:36;100808.44;;;5.51;48.05
64139;BME280;50435;43.700;-79.318;2023-04-26T07:44:03;100811.32;;;4.09;48.77
64139;BME280;50435;43.700;-79.318;2023-04-26T07:46:32;100815.24;;;5.09;48.23
64139;BME280;50435;43.700;-79.318;2023-04-26T07:48:59;100816.19;;;4.03;48.32
64139;BME280;50435;43.700;-79.318;2023-04-26T07:51:27;100819.29;;;5.00;48.46
64139;BME280;50435;43.700;-79.318;2023-04-26T07:53:55;100815.82;;;4.09;48.14
64139;BME280;50435;43.700;-79.318;2023-04-26T07:56:22;100814.77;;;5.26;48.17
64139;BME280;50435;43.700;-79.318;2023-04-26T07:58:50;100822.08;;;4.43;48.41
64139;BME280;50435;43.700;-79.318;2023-04-26T08:01:17;100818.35;;;4.83;48.45
64139;BME280;50435;43.700;-79.318;2023-04-26T08:03:44;100817.59;;;4.98;48.52
64139;BME280;50435;43.700;-79.318;2023-04-26T08:06:12;100817.25;;;4.27;48.61
64139;BME280;50435;43.700;-79.318;2023-04-26T08:08:40;100820.02;;;4.94;48.21
64139;BME280;50435;43.700;-79.318;2023-04-26T08:11:07;100819.17;;;4.47;48.15
64139;BME280;50435;43.700;-79.318;2023-04-26T08:13:35;100819.38;;;4.90;48.59
64139;BME280;50435;43.700;-79.318;2023-04-26T08:16:02;100817.56;;;3.67;48.67
64139;BME280;50435;43.700;-79.318;2023-04-26T08:18:30;100824.10;;;4.50;48.80
64139;BME280;50435;43.700;-79.318;2023-04-26T08:20:57;100823.68;;;3.05;48.79
64139;BME280;50435;43.700;-79.318;2023-04-26T08:23:25;100829.24;;;4.58;48.59
64139;BME280;50435;43.700;-79.318;2023-04-26T08:25:52;100831.54;;;4.02;48.19
64139;BME280;50435;43.700;-79.318;2023-04-26T08:28:19;100833.98;;;4.73;48.24
64139;BME280;50435;43.700;-79.318;2023-04-26T08:30:46;100838.51;;;5.06;48.50
64139;BME280;50435;43.700;-79.318;2023-04-26T08:33:14;100836.84;;;4.07;48.84
64139;BME280;50435;43.700;-79.318;2023-04-26T08:35:44;100844.18;;;4.63;48.87
64139;BME280;50435;43.700;-79.318;2023-04-26T08:38:12;100844.43;;;4.45;48.65
64139;BME280;50435;43.700;-79.318;2023-04-26T08:40:41;100849.03;;;4.82;48.76
64139;BME280;50435;43.700;-79.318;2023-04-26T08:43:10;100850.35;;;4.01;49.57
64139;BME280;50435;43.700;-79.318;2023-04-26T08:45:44;100849.74;;;4.04;49.38
64139;BME280;50435;43.700;-79.318;2023-04-26T08:48:12;100855.72;;;4.33;48.83
64139;BME280;50435;43.700;-79.318;2023-04-26T08:50:42;100853.00;;;4.76;48.62
64139;BME280;50435;43.700;-79.318;2023-04-26T08:53:13;100856.66;;;3.91;48.44
64139;BME280;50435;43.700;-79.318;2023-04-26T08:55:41;100858.12;;;4.08;48.94
64139;BME280;50435;43.700;-79.318;2023-04-26T08:58:11;100857.59;;;3.67;48.80
64139;BME280;50435;43.700;-79.318;2023-04-26T09:00:38;100859.42;;;4.36;48.81
64139;BME280;50435;43.700;-79.318;2023-04-26T09:03:05;100859.86;;;4.11;48.78
64139;BME280;50435;43.700;-79.318;2023-04-26T09:05:33;100860.06;;;4.39;49.10
64139;BME280;50435;43.700;-79.318;2023-04-26T09:08:01;100865.21;;;2.34;49.40
64139;BME280;50435;43.700;-79.318;2023-04-26T09:10:30;100863.56;;;4.32;49.14
64139;BME280;50435;43.700;-79.318;2023-04-26T09:12:58;100867.08;;;2.35;49.30
64139;BME280;50435;43.700;-79.318;2023-04-26T09:15:26;100868.11;;;4.32;49.19
64139;BME280;50435;43.700;-79.318;2023-04-26T09:17:53;100870.45;;;3.22;48.83
64139;BME280;50435;43.700;-79.318;2023-04-26T09:20:22;100872.62;;;4.12;48.92
64139;BME280;50435;43.700;-79.318;2023-04-26T09:22:53;100869.02;;;3.55;49.17
64139;BME280;50435;43.700;-79.318;2023-04-26T09:25:27;100871.15;;;4.20;49.26
64139;BME280;50435;43.700;-79.318;2023-04-26T09:27:55;100872.05;;;2.69;49.99
64139;BME280;50435;43.700;-79.318;2023-04-26T09:30:23;100876.14;;;3.44;50.27
64139;BME280;50435;43.700;-79.318;2023-04-26T09:32:53;100871.43;;;3.22;49.74
64139;BME280;50435;43.700;-79.318;2023-04-26T09:35:27;100875.62;;;4.04;49.52
64139;BME280;50435;43.700;-79.318;2023-04-26T09:37:57;100881.31;;;2.92;49.88
64139;BME280;50435;43.700;-79.318;2023-04-26T09:40:26;100881.70;;;3.87;49.30
64139;BME280;50435;43.700;-79.318;2023-04-26T09:42:59;100881.66;;;3.21;49.24
64139;BME280;50435;43.700;-79.318;2023-04-26T09:45:28;100890.28;;;3.84;49.93
64139;BME280;50435;43.700;-79.318;2023-04-26T09:48:12;100891.82;;;2.55;50.66
64139;BME280;50435;43.700;-79.318;2023-04-26T09:50:40;100890.49;;;3.57;50.45
64139;BME280;50435;43.700;-79.318;2023-04-26T09:53:08;100889.07;;;3.19;50.90
64139;BME280;50435;43.700;-79.318;2023-04-26T09:55:36;100885.33;;;3.70;50.31
64139;BME280;50435;43.700;-79.318;2023-04-26T09:58:08;100886.60;;;3.09;50.64
64139;BME280;50435;43.700;-79.318;2023-04-26T10:00:37;100889.09;;;3.40;50.97
64139;BME280;50435;43.700;-79.318;2023-04-26T10:03:08;100888.40;;;2.87;50.67
64139;BME280;50435;43.700;-79.318;2023-04-26T10:05:36;100891.49;;;3.83;49.95
64139;BME280;50435;43.700;-79.318;2023-04-26T10:08:05;100895.17;;;2.54;50.49
64139;BME280;50435;43.700;-79.318;2023-04-26T10:10:34;100896.68;;;3.84;49.95
64139;BME280;50435;43.700;-79.318;2023-04-26T10:13:02;100899.85;;;2.27;50.30
64139;BME280;50435;43.700;-79.318;2023-04-26T10:15:31;100902.09;;;3.59;50.60
64139;BME280;50435;43.700;-79.318;2023-04-26T10:17:59;100896.59;;;2.33;49.25
64139;BME280;50435;43.700;-79.318;2023-04-26T10:20:28;100905.72;;;3.96;49.63
64139;BME280;50435;43.700;-79.318;2023-04-26T10:22:57;100908.72;;;2.25;50.49
64139;BME280;50435;43.700;-79.318;2023-04-26T10:25:34;100908.65;;;4.20;49.38
64139;BME280;50435;43.700;-79.318;2023-04-26T10:28:03;100911.96;;;3.11;49.82
64139;BME280;50435;43.700;-79.318;2023-04-26T10:30:31;100912.14;;;4.07;49.59
64139;BME280;50435;43.700;-79.318;2023-04-26T10:33:13;100917.47;;;2.26;50.20
64139;BME280;50435;43.700;-79.318;2023-04-26T10:35:59;100915.96;;;3.68;50.19
64139;BME280;50435;43.700;-79.318;2023-04-26T10:38:27;100917.22;;;4.19;49.92
64139;BME280;50435;43.700;-79.318;2023-04-26T10:40:55;100925.37;;;2.66;50.94
64139;BME280;50435;43.700;-79.318;2023-04-26T10:43:53;100926.07;;;2.82;50.61
64139;BME280;50435;43.700;-79.318;2023-04-26T10:46:38;100929.17;;;3.71;50.59
64139;BME280;50435;43.700;-79.318;2023-04-26T10:49:14;100933.39;;;3.11;50.88
64139;BME280;50435;43.700;-79.318;2023-04-26T10:52:08;100937.57;;;3.91;50.81
64139;BME280;50435;43.700;-79.318;2023-04-26T10:54:53;100938.44;;;3.67;50.90
64139;BME280;50435;43.700;-79.318;2023-04-26T10:57:23;100943.70;;;3.77;50.59
64139;BME280;50435;43.700;-79.318;2023-04-26T11:00:27;100939.56;;;3.43;50.44
64139;BME280;50435;43.700;-79.318;2023-04-26T11:03:00;100942.05;;;2.70;50.27
64139;BME280;50435;43.700;-79.318;2023-04-26T11:05:38;100946.99;;;3.68;50.22
64139;BME280;50435;43.700;-79.318;2023-04-26T11:08:07;100944.01;;;3.43;50.27
64139;BME280;50435;43.700;-79.318;2023-04-26T11:10:37;100945.76;;;3.80;50.40
64139;BME280;50435;43.700;-79.318;2023-04-26T11:13:04;100946.13;;;3.90;50.03
64139;BME280;50435;43.700;-79.318;2023-04-26T11:15:32;100950.44;;;4.11;50.46
64139;BME280;50435;43.700;-79.318;2023-04-26T11:18:02;100949.90;;;2.33;50.36
64139;BME280;50435;43.700;-79.318;2023-04-26T11:20:30;100953.81;;;3.97;50.09
64139;BME280;50435;43.700;-79.318;2023-04-26T11:22:58;100961.52;;;2.63;50.45
64139;BME280;50435;43.700;-79.318;2023-04-26T11:25:27;100962.82;;;3.96;50.19
64139;BME280;50435;43.700;-79.318;2023-04-26T11:27:59;100960.43;;;3.06;50.15
64139;BME280;50435;43.700;-79.318;2023-04-26T11:30:28;100962.58;;;4.21;49.73
64139;BME280;50435;43.700;-79.318;2023-04-26T11:32:56;100963.70;;;2.77;49.53
64139;BME280;50435;43.700;-79.318;2023-04-26T11:35:24;100961.50;;;4.12;49.74
64139;BME280;50435;43.700;-79.318;2023-04-26T11:37:52;100965.82;;;3.62;50.07
64139;BME280;50435;43.700;-79.318;2023-04-26T11:40:19;100969.82;;;3.98;50.20
64139;BME280;50435;43.700;-79.318;2023-04-26T11:42:47;100966.24;;;3.94;49.74
64139;BME280;50435;43.700;-79.318;2023-04-26T11:45:15;100961.05;;;3.97;49.58
64139;BME280;50435;43.700;-79.318;2023-04-26T11:47:44;100962.49;;;4.20;49.77
64139;BME280;50435;43.700;-79.318;2023-04-26T11:50:13;100958.23;;;3.75;49.75
64139;BME280;50435;43.700;-79.318;2023-04-26T11:52:41;100958.76;;;4.35;49.37
64139;BME280;50435;43.700;-79.318;2023-04-26T11:55:09;100961.12;;;3.77;49.58
64139;BME280;50435;43.700;-79.318;2023-04-26T11:57:36;100956.90;;;4.33;49.50
64139;BME280;50435;43.700;-79.318;2023-04-26T12:00:13;100957.99;;;3.51;49.22
64139;BME280;50435;43.700;-79.318;2023-04-26T12:02:44;100957.00;;;4.48;49.02
64139;BME280;50435;43.700;-79.318;2023-04-26T12:05:21;100956.78;;;4.21;49.15
64139;BME280;50435;43.700;-79.318;2023-04-26T12:07:51;100956.51;;;4.46;49.13
64139;BME280;50435;43.700;-79.318;2023-04-26T12:10:22;100958.49;;;4.50;49.07
64139;BME280;50435;43.700;-79.318;2023-04-26T12:12:50;100953.34;;;4.48;48.78
64139;BME280;50435;43.700;-79.318;2023-04-26T12:15:22;100949.93;;;4.62;48.80
64139;BME280;50435;43.700;-79.318;2023-04-26T12:17:52;100946.33;;;4.59;48.91
64139;BME280;50435;43.700;-79.318;2023-04-26T12:20:33;100946.49;;;4.43;48.89
64139;BME280;50435;43.700;-79.318;2023-04-26T12:23:04;100946.69;;;3.92;48.86
64139;BME280;50435;43.700;-79.318;2023-04-26T12:25:32;100941.27;;;4.72;48.70
64139;BME280;50435;43.700;-79.318;2023-04-26T12:28:01;100940.32;;;3.48;48.20
64139;BME280;50435;43.700;-79.318;2023-04-26T12:30:29;100939.99;;;4.85;47.82
64139;BME280;50435;43.700;-79.318;2023-04-26T12:32:57;100942.05;;;3.54;47.64
64139;BME280;50435;43.700;-79.318;2023-04-26T12:35:25;100937.70;;;4.80;47.67
64139;BME280;50435;43.700;-79.318;2023-04-26T12:37:52;100939.46;;;4.46;47.42
64139;BME280;50435;43.700;-79.318;2023-04-26T12:40:19;100939.93;;;5.09;47.15
64139;BME280;50435;43.700;-79.318;2023-04-26T12:42:48;100943.83;;;5.44;47.09
64139;BME280;50435;43.700;-79.318;2023-04-26T12:45:17;100943.89;;;5.39;46.90
64139;BME280;50435;43.700;-79.318;2023-04-26T12:47:45;100941.71;;;5.29;47.21